createdAt,value
2022-10-28T00:01:52.282Z,335.77
2022-10-28T00:04:19.781Z,282.23
2022-10-28T00:06:46.796Z,253.52
2022-10-28T00:09:13.773Z,214.07
2022-10-28T00:11:40.887Z,219.73
2022-10-28T00:14:09.928Z,185.93
2022-10-28T00:16:38.310Z,204.48
2022-10-28T00:19:07.402Z,316.17
2022-10-28T00:21:37.626Z,276.58
2022-10-28T00:24:06.800Z,258.00
2022-10-28T00:26:38.975Z,264.15
2022-10-28T00:29:16.520Z,237.98
2022-10-28T00:31:44.638Z,222.82
2022-10-28T00:34:15.789Z,206.80
2022-10-28T00:36:45.455Z,182.35
2022-10-28T00:39:19.185Z,116.65
2022-10-28T00:41:50.568Z,141.32
2022-10-28T00:44:57.606Z,150.35
2022-10-28T00:47:58.887Z,141.88
2022-10-28T00:50:51.977Z,146.88
2022-10-28T00:53:29.287Z,136.52
2022-10-28T00:55:57.481Z,128.38
2022-10-28T00:58:26.642Z,163.00
2022-10-28T01:00:54.466Z,154.18
2022-10-28T01:03:22.654Z,203.40
2022-10-28T01:05:51.944Z,209.00
2022-10-28T01:08:20.116Z,169.40
2022-10-28T01:11:20.824Z,268.85
2022-10-28T01:14:12.352Z,287.10
2022-10-28T01:17:05.927Z,312.73
2022-10-28T01:20:13.185Z,249.25
2022-10-28T01:23:01.426Z,273.95
2022-10-28T01:25:49.090Z,224.30
2022-10-28T01:29:18.925Z,203.82
2022-10-28T01:32:37.562Z,203.10
2022-10-28T01:35:28.209Z,217.95
2022-10-28T01:38:43.147Z,190.93
2022-10-28T01:41:30.433Z,210.32
2022-10-28T01:44:07.730Z,235.75
2022-10-28T01:47:05.586Z,281.15
2022-10-28T01:49:49.561Z,352.45
2022-10-28T01:52:22.685Z,361.85
2022-10-28T01:54:56.233Z,331.40
2022-10-28T01:57:25.791Z,344.35
2022-10-28T01:59:53.380Z,329.20
2022-10-28T02:02:20.757Z,374.50
2022-10-28T02:04:48.226Z,346.50
2022-10-28T02:07:16.791Z,339.35
2022-10-28T02:10:04.207Z,347.20
2022-10-28T02:12:40.132Z,423.50
2022-10-28T02:15:31.050Z,377.08
2022-10-28T02:18:40.891Z,372.27
2022-10-28T02:21:29.176Z,361.05
2022-10-28T02:24:13.538Z,308.15
2022-10-28T02:26:48.019Z,321.40
2022-10-28T02:29:23.281Z,355.60
2022-10-28T02:31:56.229Z,294.40
2022-10-28T02:34:35.491Z,284.10
2022-10-28T02:37:09.571Z,289.95
2022-10-28T02:39:41.533Z,299.90
2022-10-28T02:42:26.750Z,244.40
2022-10-28T02:45:00.423Z,198.38
2022-10-28T02:47:32.921Z,225.65
2022-10-28T02:50:06.254Z,214.30
2022-10-28T02:52:34.914Z,207.55
2022-10-28T02:55:04.910Z,220.10
2022-10-28T02:57:41.873Z,150.35
2022-10-28T03:00:15.699Z,184.10
2022-10-28T03:02:42.925Z,166.20
2022-10-28T03:05:10.496Z,131.77
2022-10-28T03:07:37.656Z,92.32
2022-10-28T03:10:05.162Z,129.43
2022-10-28T03:12:32.226Z,143.75
2022-10-28T03:14:59.361Z,159.40
2022-10-28T03:17:26.420Z,70.88
2022-10-28T03:19:53.419Z,115.00
2022-10-28T03:22:20.474Z,110.43
2022-10-28T03:24:47.480Z,93.72
2022-10-28T03:27:14.490Z,87.95
2022-10-28T03:29:44.925Z,115.38
2022-10-28T03:32:13.648Z,114.60
2022-10-28T03:34:40.866Z,97.95
2022-10-28T03:37:07.896Z,72.05
2022-10-28T03:39:34.914Z,75.95
2022-10-28T03:42:01.975Z,91.88
2022-10-28T03:44:29.048Z,73.75
2022-10-28T03:46:56.133Z,48.08
2022-10-28T03:49:23.280Z,35.28
2022-10-28T03:51:50.328Z,34.47
2022-10-28T03:54:17.356Z,36.63
2022-10-28T03:56:44.397Z,25.63
2022-10-28T03:59:14.098Z,31.00
2022-10-28T04:01:55.585Z,32.60
2022-10-28T04:04:27.131Z,23.38
2022-10-28T04:06:57.427Z,33.13
2022-10-28T04:09:24.461Z,27.90
2022-10-28T04:11:51.593Z,33.00
2022-10-28T04:14:18.685Z,30.42
2022-10-28T04:16:45.789Z,31.40
2022-10-28T04:19:12.939Z,26.73
2022-10-28T04:21:40.014Z,28.67
2022-10-28T04:24:07.150Z,24.08
2022-10-28T04:26:34.135Z,24.83
2022-10-28T04:29:01.140Z,28.20
2022-10-28T04:31:28.230Z,22.15
2022-10-28T04:33:55.211Z,28.90
2022-10-28T04:36:22.277Z,29.80
2022-10-28T04:38:51.873Z,28.77
2022-10-28T04:41:18.933Z,19.48
2022-10-28T04:43:46.014Z,18.25
2022-10-28T04:46:13.023Z,26.92
2022-10-28T04:48:40.046Z,30.10
2022-10-28T04:51:07.127Z,26.00
2022-10-28T04:53:34.245Z,30.90
2022-10-28T04:56:01.397Z,25.17
2022-10-28T04:58:28.996Z,30.85
2022-10-28T05:00:56.239Z,27.13
2022-10-28T05:03:23.418Z,27.58
2022-10-28T05:05:50.466Z,31.52
2022-10-28T05:08:17.396Z,36.80
2022-10-28T05:10:48.818Z,18.67
2022-10-28T05:13:15.909Z,28.83
2022-10-28T05:15:43.193Z,29.90
2022-10-28T05:18:11.027Z,24.80
2022-10-28T05:20:38.038Z,32.17
2022-10-28T05:23:04.985Z,25.45
2022-10-28T05:25:32.174Z,27.42
2022-10-28T05:28:00.294Z,40.55
2022-10-28T05:30:28.728Z,34.55
2022-10-28T05:33:02.887Z,34.65
2022-10-28T05:35:31.157Z,26.92
2022-10-28T05:37:58.430Z,26.15
2022-10-28T05:40:25.587Z,26.20
2022-10-28T05:42:53.087Z,25.77
2022-10-28T05:45:20.547Z,33.90
2022-10-28T05:47:48.960Z,35.97
2022-10-28T05:50:19.230Z,33.08
2022-10-28T05:52:52.044Z,24.48
2022-10-28T05:55:21.308Z,30.48
2022-10-28T05:57:50.493Z,25.13
2022-10-28T06:00:21.046Z,23.50
2022-10-28T06:02:48.316Z,27.90
2022-10-28T06:05:15.781Z,32.60
2022-10-28T06:07:43.542Z,30.48
2022-10-28T06:10:12.099Z,30.48
2022-10-28T06:12:37.794Z,25.75
2022-10-28T06:15:05.561Z,37.83
2022-10-28T06:17:32.573Z,25.48
2022-10-28T06:19:59.766Z,28.60
2022-10-28T06:22:26.795Z,25.95
2022-10-28T06:24:53.791Z,28.23
2022-10-28T06:27:20.906Z,24.95
2022-10-28T06:29:47.943Z,25.63
2022-10-28T06:32:15.016Z,27.05
2022-10-28T06:34:42.022Z,27.55
2022-10-28T06:37:10.001Z,39.30
2022-10-28T06:39:38.475Z,20.08
2022-10-28T06:42:08.682Z,18.33
2022-10-28T06:44:35.780Z,24.40
2022-10-28T06:47:04.546Z,19.83
2022-10-28T06:49:31.544Z,25.15
2022-10-28T06:51:58.576Z,23.33
2022-10-28T06:54:25.651Z,24.50
2022-10-28T06:56:53.145Z,28.75
2022-10-28T06:59:26.597Z,67.55
2022-10-28T07:02:06.020Z,48.28
2022-10-28T07:05:36.823Z,38.45
2022-10-28T07:07:28.863Z,77.03
2022-10-28T07:09:55.989Z,31.35
2022-10-28T07:12:23.131Z,30.27
2022-10-28T07:14:50.321Z,26.85
2022-10-28T07:17:17.354Z,31.65
2022-10-28T07:19:44.599Z,24.58
2022-10-28T07:22:11.709Z,18.27
2022-10-28T07:24:38.812Z,16.52
2022-10-28T07:27:05.915Z,18.67
2022-10-28T07:29:33.002Z,17.60
2022-10-28T07:32:00.226Z,37.40
2022-10-28T07:34:27.661Z,19.52
2022-10-28T07:36:58.114Z,28.45
2022-10-28T07:39:27.826Z,27.67
2022-10-28T07:41:54.992Z,26.48
2022-10-28T07:44:22.136Z,33.75
2022-10-28T07:46:50.472Z,31.80
2022-10-28T07:49:20.250Z,36.53
2022-10-28T07:51:50.952Z,29.27
2022-10-28T07:54:18.466Z,38.58
2022-10-28T07:56:45.952Z,23.08
2022-10-28T07:59:13.617Z,22.60
2022-10-28T08:01:43.350Z,23.70
2022-10-28T08:04:15.594Z,19.58
2022-10-28T08:06:48.798Z,26.80
2022-10-28T08:09:21.471Z,27.48
2022-10-28T08:11:56.828Z,26.13
2022-10-28T08:14:38.803Z,45.38
2022-10-28T08:17:18.270Z,24.50
2022-10-28T08:19:45.285Z,26.80
2022-10-28T08:23:00.806Z,20.73
2022-10-28T08:25:32.574Z,88.85
2022-10-28T08:28:20.049Z,27.33
2022-10-28T08:33:40.175Z,36.13
2022-10-28T08:36:41.546Z,47.67
2022-10-28T08:39:08.814Z,26.63
2022-10-28T08:42:05.289Z,50.20
2022-10-28T08:44:43.031Z,20.85
2022-10-28T08:47:37.449Z,19.85
2022-10-28T08:50:16.184Z,24.80
2022-10-28T08:53:17.952Z,32.47
2022-10-28T08:56:02.426Z,27.60
2022-10-28T08:58:34.687Z,39.22
2022-10-28T09:01:20.766Z,62.38
2022-10-28T09:04:00.714Z,44.83
2022-10-28T09:06:34.138Z,76.82
2022-10-28T09:09:04.457Z,36.00
2022-10-28T09:12:52.798Z,64.35
2022-10-28T09:15:45.772Z,36.35
2022-10-28T09:18:45.299Z,19.52
2022-10-28T09:22:15.288Z,22.90
2022-10-28T09:25:00.287Z,33.28
2022-10-28T09:28:13.189Z,48.90
2022-10-28T09:31:14.762Z,25.23
2022-10-28T09:33:51.078Z,20.42
2022-10-28T09:36:44.789Z,48.65
2022-10-28T09:39:25.306Z,23.50
2022-10-28T09:42:01.000Z,43.30
2022-10-28T09:44:59.040Z,26.35
2022-10-28T09:47:38.178Z,49.03
2022-10-28T09:50:24.286Z,27.35
2022-10-28T09:53:43.580Z,90.32
2022-10-28T09:56:11.414Z,20.60
2022-10-28T09:58:45.900Z,45.10
2022-10-28T10:01:14.411Z,17.75
2022-10-28T10:03:48.058Z,29.30
2022-10-28T10:06:40.121Z,28.40
2022-10-28T10:09:27.893Z,41.08
2022-10-28T10:12:10.561Z,51.90
2022-10-28T10:14:47.733Z,19.02
2022-10-28T10:17:42.954Z,28.05
2022-10-28T10:20:23.499Z,24.23
2022-10-28T10:22:53.497Z,52.25
2022-10-28T10:25:20.783Z,30.90
2022-10-28T10:28:17.763Z,55.22
2022-10-28T10:31:27.997Z,48.30
2022-10-28T10:33:57.366Z,41.00
2022-10-28T10:36:34.744Z,42.97
2022-10-28T10:39:11.289Z,45.17
2022-10-28T10:41:45.665Z,67.93
2022-10-28T10:44:21.900Z,30.67
2022-10-28T10:47:06.213Z,45.40
2022-10-28T10:49:35.489Z,27.30
2022-10-28T10:52:11.498Z,43.58
2022-10-28T10:54:44.596Z,34.42
2022-10-28T10:57:24.930Z,35.65
2022-10-28T11:00:05.503Z,42.85
2022-10-28T11:02:55.938Z,47.25
2022-10-28T11:05:29.269Z,53.63
2022-10-28T11:08:06.721Z,35.38
2022-10-28T11:10:41.260Z,44.00
2022-10-28T11:13:27.365Z,31.52
2022-10-28T11:16:21.870Z,32.80
2022-10-28T11:18:51.904Z,44.63
2022-10-28T11:21:50.649Z,35.05
2022-10-28T11:24:57.648Z,35.97
2022-10-28T11:27:43.510Z,54.95
2022-10-28T11:30:20.550Z,39.45
2022-10-28T11:33:32.184Z,26.60
2022-10-28T11:36:07.213Z,54.55
2022-10-28T11:38:58.649Z,31.58
2022-10-28T11:41:46.639Z,57.47
2022-10-28T11:44:43.531Z,47.90
2022-10-28T11:47:19.210Z,29.10
2022-10-28T11:50:09.349Z,26.52
2022-10-28T11:52:56.688Z,29.08
2022-10-28T11:56:20.028Z,30.90
2022-10-28T11:59:13.488Z,26.92
2022-10-28T12:02:36.530Z,23.42
2022-10-28T12:05:33.279Z,27.90
2022-10-28T12:08:46.164Z,27.45
2022-10-28T12:11:40.147Z,22.38
2022-10-28T12:14:36.893Z,23.80
2022-10-28T12:17:18.304Z,24.33
2022-10-28T12:19:55.985Z,28.20
2022-10-28T12:22:48.645Z,32.58
2022-10-28T12:25:26.064Z,32.42
2022-10-28T12:28:00.572Z,30.23
2022-10-28T12:30:35.851Z,27.38
2022-10-28T12:33:16.261Z,41.38
2022-10-28T12:36:10.471Z,32.03
2022-10-28T12:39:13.666Z,33.30
2022-10-28T12:42:09.878Z,22.65
2022-10-28T12:44:38.534Z,52.60
2022-10-28T12:47:23.675Z,68.35
2022-10-28T12:50:38.701Z,50.38
2022-10-28T12:53:24.111Z,29.25
2022-10-28T12:56:04.672Z,33.75
2022-10-28T13:01:46.089Z,26.92
2022-10-28T13:04:14.066Z,29.98
2022-10-28T13:07:26.272Z,24.88
2022-10-28T13:13:13.531Z,27.73
2022-10-28T13:16:27.372Z,29.90
2022-10-28T13:19:05.572Z,27.77
2022-10-28T13:21:59.912Z,32.67
2022-10-28T13:24:32.485Z,29.05
2022-10-28T13:27:04.001Z,39.88
2022-10-28T13:29:35.122Z,33.20
2022-10-28T13:32:02.546Z,31.60
2022-10-28T13:34:39.476Z,39.88
2022-10-28T13:37:19.270Z,20.73
2022-10-28T13:39:47.476Z,37.40
2022-10-28T13:42:19.648Z,34.28
2022-10-28T13:45:02.628Z,46.55
2022-10-28T13:47:32.945Z,54.33
2022-10-28T13:50:09.309Z,38.25
2022-10-28T13:52:40.937Z,36.88
2022-10-28T13:55:31.560Z,46.40
2022-10-28T13:58:04.068Z,49.65
2022-10-28T14:00:33.324Z,31.15
2022-10-28T14:03:20.168Z,36.97
2022-10-28T14:05:47.472Z,35.30
2022-10-28T14:08:40.794Z,23.00
2022-10-28T14:11:17.736Z,23.50
2022-10-28T14:13:52.905Z,29.77
2022-10-28T14:16:39.436Z,35.53
2022-10-28T14:19:13.723Z,28.00
2022-10-28T14:22:06.742Z,37.08
2022-10-28T14:24:40.225Z,27.45
2022-10-28T14:27:12.474Z,31.35
2022-10-28T14:29:56.244Z,31.88
2022-10-28T14:32:32.519Z,49.10
2022-10-28T14:35:05.648Z,47.45
2022-10-28T14:37:54.324Z,26.45
2022-10-28T14:41:06.194Z,32.28
2022-10-28T14:43:48.883Z,40.55
2022-10-28T14:46:53.926Z,21.92
2022-10-28T14:49:34.920Z,25.05
2022-10-28T14:52:10.786Z,36.90
2022-10-28T14:54:51.390Z,41.63
2022-10-28T14:57:22.937Z,44.08
2022-10-28T14:59:51.909Z,28.02
2022-10-28T15:02:24.222Z,28.25
2022-10-28T15:05:12.457Z,36.28
2022-10-28T15:07:40.604Z,27.20
2022-10-28T15:10:23.329Z,28.95
2022-10-28T15:12:51.426Z,22.42
2022-10-28T15:15:22.729Z,59.88
2022-10-28T15:17:50.161Z,31.75
2022-10-28T15:20:31.781Z,29.17
2022-10-28T15:23:20.942Z,46.47
2022-10-28T15:26:11.457Z,24.33
2022-10-28T15:28:40.846Z,33.45
2022-10-28T15:31:09.194Z,32.17
2022-10-28T15:33:41.990Z,36.15
2022-10-28T15:36:24.655Z,24.42
2022-10-28T15:39:05.962Z,36.70
2022-10-28T15:41:44.428Z,29.85
2022-10-28T15:44:34.325Z,23.70
2022-10-28T15:47:33.141Z,38.90
2022-10-28T15:50:28.280Z,43.58
2022-10-28T15:53:11.004Z,37.97
2022-10-28T15:56:06.983Z,32.78
2022-10-28T15:58:39.186Z,37.88
2022-10-28T16:01:33.067Z,29.50
2022-10-28T16:04:01.110Z,30.73
2022-10-28T16:06:38.192Z,33.00
2022-10-28T16:09:17.990Z,33.45
2022-10-28T16:11:52.583Z,20.70
2022-10-28T16:14:55.689Z,37.03
2022-10-28T16:17:30.360Z,50.45
2022-10-28T16:20:18.576Z,30.90
2022-10-28T16:22:46.743Z,29.27
2022-10-28T16:25:20.671Z,38.40
2022-10-28T16:27:51.068Z,26.17
2022-10-28T16:30:18.236Z,22.55
2022-10-28T16:32:49.018Z,31.40
2022-10-28T16:35:24.422Z,38.13
2022-10-28T16:37:55.563Z,25.38
2022-10-28T16:43:20.015Z,26.70
2022-10-28T16:45:49.017Z,26.52
2022-10-28T16:48:18.246Z,21.45
2022-10-28T16:50:50.923Z,22.90
2022-10-28T16:53:18.488Z,24.40
2022-10-28T16:55:45.838Z,19.50
2022-10-28T16:58:13.444Z,19.85
2022-10-28T17:00:41.309Z,27.48
2022-10-28T17:03:11.742Z,22.33
2022-10-28T17:05:38.905Z,24.25
2022-10-28T17:08:09.830Z,20.50
2022-10-28T17:10:40.469Z,19.52
2022-10-28T17:13:15.838Z,22.48
2022-10-28T17:15:44.920Z,33.65
2022-10-28T17:18:15.223Z,20.00
2022-10-28T17:20:42.482Z,20.42
2022-10-28T17:23:09.583Z,20.20
2022-10-28T17:25:36.746Z,24.33
2022-10-28T17:28:04.081Z,23.75
2022-10-28T17:30:34.519Z,40.85
2022-10-28T17:33:01.821Z,26.77
2022-10-28T17:35:28.977Z,35.17
2022-10-28T17:37:58.783Z,33.80
2022-10-28T17:40:26.145Z,34.05
2022-10-28T17:42:54.738Z,31.00
2022-10-28T17:45:22.241Z,34.20
2022-10-28T17:47:49.429Z,33.97
2022-10-28T17:50:16.892Z,25.88
2022-10-28T17:52:43.970Z,23.60
2022-10-28T17:55:18.531Z,33.40
2022-10-28T17:57:48.206Z,27.27
2022-10-28T18:00:17.968Z,21.55
2022-10-28T18:02:45.176Z,25.45
2022-10-28T18:05:12.413Z,25.65
2022-10-28T18:07:39.694Z,23.73
2022-10-28T18:10:10.252Z,23.50
2022-10-28T18:12:37.386Z,30.00
2022-10-28T18:15:05.607Z,39.60
2022-10-28T18:17:35.219Z,29.77
2022-10-28T18:20:08.669Z,41.15
2022-10-28T18:22:38.029Z,29.73
2022-10-28T18:25:10.610Z,36.35
2022-10-28T18:27:38.492Z,23.63
2022-10-28T18:30:06.441Z,24.67
2022-10-28T18:32:33.613Z,27.98
2022-10-28T18:35:00.753Z,51.67
2022-10-28T18:37:28.713Z,29.95
2022-10-28T18:39:55.753Z,34.05
2022-10-28T18:42:28.252Z,43.30
2022-10-28T18:44:58.883Z,76.47
2022-10-28T18:47:28.962Z,31.77
2022-10-28T18:49:59.122Z,38.03
2022-10-28T18:52:28.683Z,53.40
2022-10-28T18:54:56.229Z,39.65
2022-10-28T18:57:23.354Z,37.88
2022-10-28T19:02:46.331Z,23.25
2022-10-28T19:05:15.197Z,39.83
2022-10-28T19:07:42.490Z,32.35
2022-10-28T19:10:10.947Z,27.45
2022-10-28T19:12:44.150Z,32.78
2022-10-28T19:15:12.949Z,36.90
2022-10-28T19:17:40.101Z,26.40
2022-10-28T19:20:15.354Z,21.25
2022-10-28T19:22:42.627Z,42.33
2022-10-28T19:25:09.869Z,49.30
2022-10-28T19:27:36.975Z,29.35
2022-10-28T19:30:07.779Z,29.85
2022-10-28T19:32:39.421Z,26.52
2022-10-28T19:35:07.105Z,49.13
2022-10-28T19:37:35.169Z,29.15
2022-10-28T19:40:02.323Z,27.75
2022-10-28T19:42:29.495Z,41.45
2022-10-28T19:44:56.512Z,45.10
2022-10-28T19:47:23.755Z,34.83
2022-10-28T19:49:50.756Z,44.05
2022-10-28T19:52:17.930Z,42.78
2022-10-28T19:54:44.939Z,42.92
2022-10-28T19:59:38.790Z,44.00
2022-10-28T20:02:05.950Z,34.47
2022-10-28T20:04:32.940Z,27.23
2022-10-28T20:07:00.233Z,26.02
2022-10-28T20:09:29.075Z,28.90
2022-10-28T20:11:56.256Z,38.00
2022-10-28T20:14:23.359Z,33.70
2022-10-28T20:16:50.357Z,32.97
2022-10-28T20:19:17.284Z,28.95
2022-10-28T20:21:45.266Z,25.67
2022-10-28T20:24:12.389Z,29.55
2022-10-28T20:26:39.552Z,31.85
2022-10-28T20:29:08.850Z,40.17
2022-10-28T20:31:36.447Z,37.47
2022-10-28T20:34:04.565Z,43.58
2022-10-28T20:36:40.837Z,35.92
2022-10-28T20:39:20.880Z,27.50
2022-10-28T20:41:49.923Z,30.00
2022-10-28T20:44:17.496Z,29.95
2022-10-28T20:46:48.295Z,36.22
2022-10-28T20:49:16.262Z,25.02
2022-10-28T20:51:43.307Z,33.80
2022-10-28T20:54:10.291Z,43.55
2022-10-28T20:56:40.483Z,43.17
2022-10-28T20:59:08.030Z,41.63
2022-10-28T21:01:38.980Z,31.85
2022-10-28T21:04:09.931Z,28.92
2022-10-28T21:06:38.566Z,55.53
2022-10-28T21:09:07.266Z,34.30
2022-10-28T21:11:34.510Z,35.22
2022-10-28T21:14:02.214Z,36.13
2022-10-28T21:16:30.530Z,33.67
2022-10-28T21:18:59.342Z,30.38
2022-10-28T21:21:27.799Z,27.23
2022-10-28T21:23:54.921Z,40.03
2022-10-28T21:26:22.393Z,31.55
2022-10-28T21:28:54.109Z,39.90
2022-10-28T21:31:21.930Z,33.10
2022-10-28T21:36:19.936Z,26.38
2022-10-28T21:38:47.472Z,43.70
2022-10-28T21:41:18.359Z,31.77
2022-10-28T21:43:48.403Z,39.63
2022-10-28T21:46:19.529Z,33.70
2022-10-28T21:48:46.890Z,40.80
2022-10-28T21:51:16.316Z,26.15
2022-10-28T21:53:44.974Z,28.00
2022-10-28T21:56:19.558Z,35.50
2022-10-28T21:58:51.382Z,32.45
2022-10-28T22:01:24.235Z,47.88
2022-10-28T22:03:55.138Z,31.75
2022-10-28T22:06:22.537Z,34.83
2022-10-28T22:08:49.594Z,38.38
2022-10-28T22:11:20.488Z,25.80
2022-10-28T22:13:52.396Z,39.63
2022-10-28T22:16:19.501Z,34.85
2022-10-28T22:18:46.649Z,39.85
2022-10-28T22:21:19.048Z,46.60
2022-10-28T22:23:46.737Z,26.95
2022-10-28T22:26:24.538Z,31.67
2022-10-28T22:28:52.324Z,38.50
2022-10-28T22:31:27.457Z,25.23
2022-10-28T22:33:55.327Z,35.45
2022-10-28T22:36:25.008Z,35.97
2022-10-28T22:38:52.479Z,33.40
2022-10-28T22:41:28.760Z,42.45
2022-10-28T22:43:59.533Z,36.40
2022-10-28T22:46:31.077Z,31.63
2022-10-28T22:48:58.195Z,29.90
2022-10-28T22:51:25.414Z,33.10
2022-10-28T22:53:52.452Z,34.47
2022-10-28T22:56:22.895Z,46.20
2022-10-28T22:58:58.631Z,40.42
2022-10-28T23:01:27.783Z,34.33
2022-10-28T23:03:55.703Z,28.85
2022-10-28T23:06:25.922Z,33.35
2022-10-28T23:08:53.232Z,35.67
2022-10-28T23:11:22.288Z,34.88
2022-10-28T23:13:54.271Z,30.13
2022-10-28T23:16:23.048Z,31.08
2022-10-28T23:18:50.184Z,28.75
2022-10-28T23:21:20.754Z,24.48
2022-10-28T23:23:51.313Z,29.90
2022-10-28T23:26:21.627Z,27.02
2022-10-28T23:28:54.518Z,23.60
2022-10-28T23:31:22.675Z,30.88
2022-10-28T23:33:50.262Z,27.75
2022-10-28T23:36:17.626Z,32.13
2022-10-28T23:38:44.807Z,25.58
2022-10-28T23:41:16.301Z,35.97
2022-10-28T23:43:43.491Z,30.02
2022-10-28T23:46:11.057Z,28.30
2022-10-28T23:48:38.416Z,25.55
2022-10-28T23:51:06.032Z,30.02
2022-10-28T23:53:33.099Z,34.55
2022-10-28T23:56:00.307Z,37.45
2022-10-28T23:58:27.540Z,33.90
